createdAt,value
2023-06-11T00:01:47.906Z,22.90
2023-06-11T00:04:26.259Z,22.80
2023-06-11T00:06:56.082Z,22.80
2023-06-11T00:09:26.055Z,22.80
2023-06-11T00:11:56.625Z,22.80
2023-06-11T00:14:26.028Z,22.70
2023-06-11T00:16:54.591Z,22.80
2023-06-11T00:19:23.484Z,22.80
2023-06-11T00:21:52.448Z,22.70
2023-06-11T00:24:21.328Z,22.60
2023-06-11T00:26:50.333Z,22.70
2023-06-11T00:29:20.885Z,22.60
2023-06-11T00:31:49.834Z,22.50
2023-06-11T00:34:18.676Z,22.50
2023-06-11T00:36:47.707Z,22.40
2023-06-11T00:39:16.480Z,22.30
2023-06-11T00:41:47.013Z,22.30
2023-06-11T00:44:19.137Z,22.20
2023-06-11T00:46:52.637Z,22.30
2023-06-11T00:49:21.395Z,22.20
2023-06-11T00:51:50.365Z,22.20
2023-06-11T00:54:19.058Z,22.10
2023-06-11T00:56:48.010Z,22.00
2023-06-11T00:59:21.243Z,22.00
2023-06-11T01:02:02.241Z,21.90
2023-06-11T01:04:34.128Z,21.90
2023-06-11T01:07:10.349Z,21.80
2023-06-11T01:09:39.892Z,21.80
2023-06-11T01:12:09.756Z,21.80
2023-06-11T01:14:43.909Z,21.80
2023-06-11T01:17:18.953Z,21.80
2023-06-11T01:20:11.194Z,21.80
2023-06-11T01:23:05.904Z,21.60
2023-06-11T01:25:46.735Z,21.50
2023-06-11T01:28:32.448Z,21.40
2023-06-11T01:31:09.823Z,21.50
2023-06-11T01:33:40.695Z,21.50
2023-06-11T01:36:12.121Z,21.40
2023-06-11T01:38:46.560Z,21.40
2023-06-11T01:41:18.751Z,21.10
2023-06-11T01:43:48.708Z,21.40
2023-06-11T01:46:17.394Z,21.20
2023-06-11T01:48:48.794Z,21.20
2023-06-11T01:51:17.631Z,21.20
2023-06-11T01:53:46.692Z,21.10
2023-06-11T01:56:15.313Z,21.10
2023-06-11T01:58:46.730Z,21.10
2023-06-11T02:01:16.805Z,21.00
2023-06-11T02:03:45.888Z,21.00
2023-06-11T02:06:15.618Z,21.00
2023-06-11T02:08:44.510Z,20.90
2023-06-11T02:11:13.940Z,21.00
2023-06-11T02:13:42.460Z,20.90
2023-06-11T02:16:11.158Z,21.00
2023-06-11T02:18:41.150Z,21.00
2023-06-11T02:21:10.114Z,21.00
2023-06-11T02:23:39.035Z,20.90
2023-06-11T02:26:07.573Z,21.00
2023-06-11T02:28:36.530Z,21.00
2023-06-11T02:31:05.467Z,21.00
2023-06-11T02:33:34.109Z,20.90
2023-06-11T02:36:04.293Z,20.90
2023-06-11T02:38:32.819Z,20.90
2023-06-11T02:41:01.597Z,20.90
2023-06-11T02:43:30.226Z,20.90
2023-06-11T02:45:58.980Z,20.90
2023-06-11T02:48:27.597Z,20.90
2023-06-11T02:50:56.990Z,20.90
2023-06-11T02:53:27.031Z,20.90
2023-06-11T02:55:55.721Z,20.80
2023-06-11T02:58:24.587Z,20.80
2023-06-11T03:00:53.442Z,20.70
2023-06-11T03:03:21.985Z,20.70
2023-06-11T03:05:51.519Z,20.60
2023-06-11T03:08:20.234Z,20.60
2023-06-11T03:10:53.382Z,20.50
2023-06-11T03:13:22.296Z,20.50
2023-06-11T03:15:51.360Z,20.40
2023-06-11T03:18:20.086Z,20.30
2023-06-11T03:20:48.984Z,20.30
2023-06-11T03:23:17.871Z,20.20
2023-06-11T03:25:46.839Z,20.20
2023-06-11T03:28:16.862Z,20.20
2023-06-11T03:30:45.457Z,20.20
2023-06-11T03:33:14.114Z,20.20
2023-06-11T03:35:46.101Z,20.20
2023-06-11T03:38:14.581Z,20.20
2023-06-11T03:40:43.305Z,20.10
2023-06-11T03:43:11.940Z,20.10
2023-06-11T03:45:42.310Z,20.10
2023-06-11T03:48:10.837Z,20.10
2023-06-11T03:50:39.486Z,20.10
2023-06-11T03:53:08.732Z,20.10
2023-06-11T03:55:37.276Z,20.00
2023-06-11T03:58:05.922Z,20.10
2023-06-11T04:00:35.737Z,20.10
2023-06-11T04:03:06.005Z,20.00
2023-06-11T04:05:38.136Z,20.00
2023-06-11T04:08:07.393Z,20.10
2023-06-11T04:10:36.410Z,20.10
2023-06-11T04:13:04.942Z,20.10
2023-06-11T04:15:34.202Z,20.40
2023-06-11T04:18:03.035Z,20.90
2023-06-11T04:20:33.834Z,21.40
2023-06-11T04:23:02.476Z,21.70
2023-06-11T04:25:32.786Z,22.10
2023-06-11T04:28:01.360Z,22.50
2023-06-11T04:30:30.217Z,22.80
2023-06-11T04:32:59.300Z,23.10
2023-06-11T04:35:27.860Z,23.70
2023-06-11T04:37:58.361Z,24.10
2023-06-11T04:40:27.165Z,24.70
2023-06-11T04:42:55.773Z,24.70
2023-06-11T04:45:24.490Z,24.60
2023-06-11T04:47:53.135Z,24.40
2023-06-11T04:50:23.145Z,24.80
2023-06-11T04:52:53.508Z,25.10
2023-06-11T04:55:26.398Z,25.10
2023-06-11T04:57:56.350Z,25.30
2023-06-11T05:00:26.926Z,25.60
2023-06-11T05:02:55.933Z,25.40
2023-06-11T05:05:24.811Z,26.10
2023-06-11T05:07:53.639Z,26.00
2023-06-11T05:10:23.806Z,26.00
2023-06-11T05:12:52.386Z,26.10
2023-06-11T05:15:21.359Z,26.30
2023-06-11T05:17:52.163Z,26.80
2023-06-11T05:20:22.159Z,26.80
2023-06-11T05:22:55.006Z,26.90
2023-06-11T05:25:29.046Z,27.50
2023-06-11T05:28:02.366Z,27.90
2023-06-11T05:30:37.942Z,28.60
2023-06-11T05:33:08.402Z,28.60
2023-06-11T05:35:37.102Z,29.20
2023-06-11T05:38:07.503Z,29.90
2023-06-11T05:40:38.914Z,29.90
2023-06-11T05:43:08.116Z,30.40
2023-06-11T05:45:37.156Z,30.20
2023-06-11T05:48:07.574Z,30.60
2023-06-11T05:50:36.168Z,30.80
2023-06-11T05:53:05.487Z,31.40
2023-06-11T05:55:34.141Z,31.70
2023-06-11T05:58:04.400Z,31.70
2023-06-11T06:00:33.200Z,32.60
2023-06-11T06:03:05.707Z,31.80
2023-06-11T06:05:34.563Z,31.60
2023-06-11T06:08:03.377Z,31.90
2023-06-11T06:10:32.209Z,32.50
2023-06-11T06:13:00.790Z,32.90
2023-06-11T06:15:31.039Z,32.90
2023-06-11T06:18:00.221Z,33.00
2023-06-11T06:20:29.197Z,32.80
2023-06-11T06:22:57.892Z,33.70
2023-06-11T06:25:28.067Z,33.40
2023-06-11T06:27:57.948Z,33.10
2023-06-11T06:30:26.842Z,33.80
2023-06-11T06:32:58.758Z,34.10
2023-06-11T06:35:27.867Z,34.70
2023-06-11T06:37:59.524Z,35.60
2023-06-11T06:40:28.696Z,35.70
2023-06-11T06:42:58.320Z,35.40
2023-06-11T06:45:27.451Z,34.90
2023-06-11T06:47:58.039Z,34.90
2023-06-11T06:50:27.168Z,35.20
2023-06-11T06:52:56.427Z,35.30
2023-06-11T06:55:25.071Z,35.90
2023-06-11T06:57:54.307Z,35.50
2023-06-11T07:00:23.504Z,35.10
2023-06-11T07:02:52.226Z,34.80
2023-06-11T07:05:22.307Z,35.50
2023-06-11T07:07:51.440Z,35.80
2023-06-11T07:10:20.424Z,35.90
2023-06-11T07:12:49.675Z,36.10
2023-06-11T07:15:18.541Z,36.10
2023-06-11T07:17:47.650Z,36.10
2023-06-11T07:20:17.102Z,36.60
2023-06-11T07:22:47.688Z,36.10
2023-06-11T07:25:16.840Z,35.50
2023-06-11T07:27:45.630Z,36.00
2023-06-11T07:30:15.226Z,36.50
2023-06-11T07:32:44.071Z,36.70
2023-06-11T07:35:13.495Z,36.90
2023-06-11T07:37:42.404Z,36.80
2023-06-11T07:40:17.276Z,37.10
2023-06-11T07:42:48.602Z,36.70
2023-06-11T07:45:19.802Z,37.40
2023-06-11T07:47:50.961Z,37.10
2023-06-11T07:50:20.508Z,36.70
2023-06-11T07:52:49.510Z,37.00
2023-06-11T07:55:20.260Z,36.50
2023-06-11T07:57:48.927Z,36.50
2023-06-11T08:00:20.952Z,37.10
2023-06-11T08:02:52.593Z,36.90
2023-06-11T08:05:23.561Z,36.70
2023-06-11T08:07:53.783Z,36.50
2023-06-11T08:10:24.946Z,36.30
2023-06-11T08:12:54.116Z,36.40
2023-06-11T08:15:23.987Z,36.60
2023-06-11T08:17:53.655Z,37.70
2023-06-11T08:20:24.030Z,37.80
2023-06-11T08:22:57.947Z,38.20
2023-06-11T08:25:29.334Z,38.00
2023-06-11T08:27:58.889Z,38.00
2023-06-11T08:30:28.102Z,37.90
2023-06-11T08:32:57.968Z,37.40
2023-06-11T08:35:27.439Z,37.70
2023-06-11T08:37:58.953Z,37.90
2023-06-11T08:40:42.436Z,38.00
2023-06-11T08:43:21.193Z,37.70
2023-06-11T08:45:51.126Z,37.70
2023-06-11T08:48:25.940Z,37.20
2023-06-11T08:50:55.626Z,37.70
2023-06-11T08:53:27.492Z,37.80
2023-06-11T08:56:43.759Z,37.20
2023-06-11T08:59:14.377Z,37.70
2023-06-11T09:01:43.844Z,37.60
2023-06-11T09:04:12.803Z,37.10
2023-06-11T09:06:54.219Z,37.30
2023-06-11T09:09:23.414Z,37.40
2023-06-11T09:11:52.956Z,36.90
2023-06-11T09:14:24.324Z,35.70
2023-06-11T09:16:53.875Z,36.30
2023-06-11T09:19:24.035Z,36.10
2023-06-11T09:21:57.911Z,35.90
2023-06-11T09:24:30.437Z,36.10
2023-06-11T09:27:00.949Z,35.60
2023-06-11T09:29:32.153Z,35.60
2023-06-11T09:32:23.786Z,35.90
2023-06-11T09:35:05.490Z,36.20
2023-06-11T09:37:40.878Z,37.00
2023-06-11T09:40:15.416Z,36.20
2023-06-11T09:42:48.443Z,36.50
2023-06-11T09:45:23.004Z,36.80
2023-06-11T09:47:53.002Z,36.30
2023-06-11T09:50:24.515Z,36.30
2023-06-11T09:52:55.274Z,36.50
2023-06-11T09:55:27.673Z,35.90
2023-06-11T09:58:17.223Z,35.30
2023-06-11T10:00:49.702Z,34.60
2023-06-11T10:03:21.386Z,34.50
2023-06-11T10:06:08.293Z,34.50
2023-06-11T10:08:41.963Z,34.20
2023-06-11T10:11:17.811Z,33.70
2023-06-11T10:14:07.532Z,33.50
2023-06-11T10:16:41.833Z,33.60
2023-06-11T10:19:17.521Z,32.50
2023-06-11T10:21:51.084Z,32.20
2023-06-11T10:24:28.708Z,32.80
2023-06-11T10:27:19.819Z,33.00
2023-06-11T10:29:57.647Z,32.90
2023-06-11T10:32:36.197Z,32.20
2023-06-11T10:35:09.797Z,32.70
2023-06-11T10:37:53.239Z,32.80
2023-06-11T10:40:59.194Z,33.00
2023-06-11T10:43:29.001Z,33.30
2023-06-11T10:46:05.105Z,32.80
2023-06-11T10:48:38.706Z,32.70
2023-06-11T10:51:09.730Z,32.60
2023-06-11T10:53:41.943Z,32.90
2023-06-11T10:56:12.788Z,33.00
2023-06-11T10:58:44.947Z,33.20
2023-06-11T11:01:14.300Z,33.20
2023-06-11T11:03:47.516Z,33.20
2023-06-11T11:06:37.634Z,32.60
2023-06-11T11:09:07.366Z,32.60
2023-06-11T11:11:39.944Z,32.10
2023-06-11T11:14:12.870Z,32.30
2023-06-11T11:16:42.067Z,32.70
2023-06-11T11:19:16.800Z,32.60
2023-06-11T11:21:57.647Z,32.60
2023-06-11T11:24:47.182Z,32.20
2023-06-11T11:27:25.332Z,32.50
2023-06-11T11:30:01.476Z,32.60
2023-06-11T11:32:34.832Z,32.80
2023-06-11T11:35:08.495Z,32.60
2023-06-11T11:37:39.417Z,32.20
2023-06-11T11:40:13.322Z,32.30
2023-06-11T11:42:51.433Z,32.10
2023-06-11T11:45:25.000Z,32.20
2023-06-11T11:47:56.223Z,32.00
2023-06-11T11:50:35.354Z,32.20
2023-06-11T11:53:23.101Z,32.10
2023-06-11T11:56:05.343Z,32.20
2023-06-11T11:58:47.812Z,32.00
2023-06-11T12:01:43.559Z,31.00
2023-06-11T12:04:12.706Z,30.40
2023-06-11T12:06:44.706Z,30.50
2023-06-11T12:09:16.983Z,31.10
2023-06-11T12:12:03.924Z,31.40
2023-06-11T12:14:34.105Z,31.20
2023-06-11T12:17:11.832Z,31.50
2023-06-11T12:19:42.700Z,31.80
2023-06-11T12:22:21.956Z,32.00
2023-06-11T12:25:06.817Z,32.10
2023-06-11T12:27:41.014Z,32.10
2023-06-11T12:30:20.284Z,31.70
2023-06-11T12:32:50.564Z,31.80
2023-06-11T12:35:20.480Z,31.60
2023-06-11T12:37:52.421Z,31.40
2023-06-11T12:40:29.647Z,31.20
2023-06-11T12:43:01.415Z,31.50
2023-06-11T12:45:42.641Z,31.30
2023-06-11T12:48:13.436Z,31.20
2023-06-11T12:50:43.429Z,31.50
2023-06-11T12:53:17.632Z,31.60
2023-06-11T12:55:47.165Z,31.70
2023-06-11T13:05:46.186Z,32.00
2023-06-11T13:08:16.792Z,31.90
2023-06-11T13:10:47.464Z,31.90
2023-06-11T13:13:19.909Z,31.70
2023-06-11T13:15:49.398Z,31.70
2023-06-11T13:18:19.174Z,31.70
2023-06-11T13:21:00.836Z,31.60
2023-06-11T13:23:49.006Z,31.60
2023-06-11T13:29:45.189Z,31.80
2023-06-11T13:32:18.674Z,31.70
2023-06-11T13:34:48.698Z,31.60
2023-06-11T13:37:22.935Z,31.50
2023-06-11T13:39:55.622Z,31.60
2023-06-11T13:42:32.076Z,31.90
2023-06-11T13:45:01.355Z,31.90
2023-06-11T13:47:33.636Z,32.00
2023-06-11T13:50:05.379Z,31.70
2023-06-11T13:52:34.434Z,32.00
2023-06-11T13:55:06.982Z,32.00
2023-06-11T13:57:37.798Z,32.10
2023-06-11T14:00:08.544Z,31.70
2023-06-11T14:02:37.666Z,30.90
2023-06-11T14:05:08.335Z,30.50
2023-06-11T14:07:38.109Z,30.60
2023-06-11T14:10:11.193Z,30.70
2023-06-11T14:12:41.306Z,30.70
2023-06-11T14:15:14.644Z,30.70
2023-06-11T14:17:44.098Z,30.70
2023-06-11T14:20:17.695Z,30.50
2023-06-11T14:22:47.982Z,30.30
2023-06-11T14:25:22.201Z,30.20
2023-06-11T14:27:57.914Z,30.00
2023-06-11T14:30:27.341Z,30.00
2023-06-11T14:32:56.535Z,30.00
2023-06-11T14:35:44.108Z,29.90
2023-06-11T14:38:15.049Z,29.90
2023-06-11T14:40:57.705Z,29.80
2023-06-11T14:43:48.810Z,29.70
2023-06-11T14:46:28.849Z,29.70
2023-06-11T14:49:10.838Z,29.60
2023-06-11T14:51:48.762Z,29.60
2023-06-11T14:54:18.878Z,29.60
2023-06-11T14:56:54.911Z,29.90
2023-06-11T14:59:29.239Z,29.90
2023-06-11T15:01:59.213Z,30.00
2023-06-11T15:04:29.168Z,30.20
2023-06-11T15:07:29.340Z,30.30
2023-06-11T15:10:08.269Z,30.50
2023-06-11T15:12:43.461Z,30.40
2023-06-11T15:15:14.237Z,30.30
2023-06-11T15:17:43.748Z,30.50
2023-06-11T15:20:14.226Z,30.50
2023-06-11T15:22:44.995Z,30.50
2023-06-11T15:25:14.080Z,30.60
2023-06-11T15:27:44.586Z,30.80
2023-06-11T15:30:15.475Z,30.60
2023-06-11T15:32:45.007Z,30.50
2023-06-11T15:35:13.973Z,30.40
2023-06-11T15:37:44.653Z,30.30
2023-06-11T15:40:15.477Z,30.50
2023-06-11T15:42:47.216Z,30.40
2023-06-11T15:45:19.042Z,30.40
2023-06-11T15:47:51.447Z,30.40
2023-06-11T15:50:33.490Z,30.50
2023-06-11T15:53:14.237Z,30.30
2023-06-11T15:55:49.311Z,30.30
2023-06-11T15:58:31.712Z,30.50
2023-06-11T16:01:01.756Z,30.50
2023-06-11T16:03:42.638Z,30.30
2023-06-11T16:06:18.231Z,30.00
2023-06-11T16:08:47.677Z,30.10
2023-06-11T16:11:31.837Z,29.80
2023-06-11T16:14:04.280Z,29.80
2023-06-11T16:16:34.035Z,29.80
2023-06-11T16:19:08.548Z,29.60
2023-06-11T16:21:45.159Z,29.80
2023-06-11T16:24:14.324Z,29.50
2023-06-11T16:26:49.661Z,29.50
2023-06-11T16:29:21.987Z,29.60
2023-06-11T16:31:58.238Z,29.60
2023-06-11T16:34:30.696Z,29.80
2023-06-11T16:37:00.158Z,29.80
2023-06-11T16:39:29.235Z,29.80
2023-06-11T16:41:58.651Z,29.70
2023-06-11T16:44:29.984Z,29.80
2023-06-11T16:47:04.314Z,29.80
2023-06-11T16:49:48.944Z,29.70
2023-06-11T16:52:19.189Z,29.80
2023-06-11T16:55:10.289Z,29.80
2023-06-11T16:57:45.099Z,29.80
2023-06-11T17:00:51.885Z,29.60
2023-06-11T17:03:27.499Z,29.80
2023-06-11T17:06:05.055Z,29.50
2023-06-11T17:08:36.275Z,29.50
2023-06-11T17:11:17.483Z,29.40
2023-06-11T17:13:49.851Z,29.50
2023-06-11T17:16:21.504Z,29.60
2023-06-11T17:18:59.976Z,29.50
2023-06-11T17:21:30.870Z,29.50
2023-06-11T17:24:04.372Z,29.50
2023-06-11T17:26:42.877Z,29.60
2023-06-11T17:29:18.058Z,29.40
2023-06-11T17:31:49.287Z,28.90
2023-06-11T17:34:21.945Z,29.20
2023-06-11T17:36:57.634Z,29.30
2023-06-11T17:39:29.660Z,29.40
2023-06-11T17:41:58.701Z,29.20
2023-06-11T17:44:27.564Z,29.10
2023-06-11T17:47:02.750Z,29.20
2023-06-11T17:49:49.907Z,29.20
2023-06-11T17:52:57.312Z,29.10
2023-06-11T17:56:26.940Z,29.10
2023-06-11T18:01:48.842Z,28.90
2023-06-11T18:11:45.505Z,28.80
2023-06-11T18:17:39.508Z,28.60
2023-06-11T18:20:16.892Z,28.50
2023-06-11T18:22:52.115Z,28.50
2023-06-11T18:25:37.920Z,28.50
2023-06-11T18:28:12.943Z,28.30
2023-06-11T18:30:49.295Z,28.40
2023-06-11T18:33:27.721Z,28.30
2023-06-11T18:36:47.262Z,28.30
2023-06-11T18:39:19.381Z,28.10
2023-06-11T18:41:48.685Z,28.20
2023-06-11T18:44:19.248Z,28.20
2023-06-11T18:46:49.976Z,28.10
2023-06-11T18:49:20.577Z,28.10
2023-06-11T18:51:49.393Z,28.10
2023-06-11T18:54:18.321Z,28.00
2023-06-11T18:56:47.355Z,27.90
2023-06-11T18:59:16.256Z,27.90
2023-06-11T19:01:45.644Z,27.90
2023-06-11T19:04:25.488Z,27.90
2023-06-11T19:06:55.398Z,27.80
2023-06-11T19:09:24.344Z,27.80
2023-06-11T19:11:56.776Z,27.70
2023-06-11T19:14:27.543Z,27.80
2023-06-11T19:16:56.620Z,27.60
2023-06-11T19:19:26.987Z,27.60
2023-06-11T19:22:06.738Z,27.50
2023-06-11T19:24:37.001Z,27.40
2023-06-11T19:27:08.655Z,27.40
2023-06-11T19:30:15.486Z,27.30
2023-06-11T19:32:44.949Z,27.30
2023-06-11T19:35:17.604Z,27.20
2023-06-11T19:37:47.002Z,27.20
2023-06-11T19:40:17.762Z,27.10
2023-06-11T19:42:46.843Z,27.10
2023-06-11T19:45:21.855Z,27.00
2023-06-11T19:48:23.489Z,26.80
2023-06-11T19:50:59.550Z,27.00
2023-06-11T19:53:42.108Z,26.70
2023-06-11T19:56:15.929Z,26.80
2023-06-11T19:58:45.028Z,26.80
2023-06-11T20:01:15.725Z,26.60
2023-06-11T20:03:45.712Z,26.70
2023-06-11T20:06:18.108Z,26.60
2023-06-11T20:08:47.239Z,26.80
2023-06-11T20:11:19.708Z,26.50
2023-06-11T20:13:48.882Z,26.50
2023-06-11T20:16:23.283Z,26.40
2023-06-11T20:19:04.621Z,26.40
2023-06-11T20:22:06.079Z,26.40
2023-06-11T20:25:07.997Z,26.30
2023-06-11T20:28:01.575Z,26.20
2023-06-11T20:30:33.532Z,26.00
2023-06-11T20:33:24.752Z,26.10
2023-06-11T20:35:55.242Z,26.00
2023-06-11T20:38:27.306Z,26.00
2023-06-11T20:41:01.594Z,26.00
2023-06-11T20:43:33.288Z,25.90
2023-06-11T20:46:11.614Z,25.80
2023-06-11T20:48:53.057Z,25.80
2023-06-11T20:51:24.264Z,25.80
2023-06-11T20:54:08.618Z,25.70
2023-06-11T20:56:44.815Z,25.20
2023-06-11T20:59:19.972Z,25.60
2023-06-11T21:01:49.184Z,25.50
2023-06-11T21:04:19.834Z,25.50
2023-06-11T21:06:48.983Z,25.40
2023-06-11T21:09:32.764Z,25.40
2023-06-11T21:12:39.213Z,25.40
2023-06-11T21:15:40.251Z,25.40
2023-06-11T21:18:30.786Z,25.20
2023-06-11T21:21:55.870Z,25.10
2023-06-11T21:24:33.732Z,25.10
2023-06-11T21:27:04.802Z,25.10
2023-06-11T21:29:58.952Z,25.00
2023-06-11T21:32:39.899Z,25.00
2023-06-11T21:35:16.029Z,25.00
2023-06-11T21:37:46.454Z,24.90
2023-06-11T21:40:15.986Z,24.90
2023-06-11T21:42:45.603Z,24.80
2023-06-11T21:45:16.716Z,24.80
2023-06-11T21:47:52.028Z,24.70
2023-06-11T21:50:21.835Z,24.70
2023-06-11T21:52:53.880Z,24.60
2023-06-11T21:55:22.854Z,24.60
2023-06-11T21:57:53.400Z,24.40
2023-06-11T22:00:24.576Z,24.50
2023-06-11T22:02:55.368Z,24.40
2023-06-11T22:05:27.289Z,24.40
2023-06-11T22:11:38.429Z,24.20
2023-06-11T22:18:07.869Z,24.00
2023-06-11T22:20:37.004Z,24.00
2023-06-11T22:27:13.505Z,23.90
2023-06-11T22:29:42.220Z,23.80
2023-06-11T22:32:12.989Z,23.80
2023-06-11T22:34:43.388Z,23.90
2023-06-11T22:37:12.266Z,23.70
2023-06-11T22:39:41.263Z,23.70
2023-06-11T22:45:03.873Z,23.60
2023-06-11T22:51:03.336Z,23.60
2023-06-11T22:51:11.680Z,23.30
2023-06-11T22:53:40.690Z,23.50
2023-06-11T22:56:10.280Z,23.50
2023-06-11T23:02:26.054Z,23.30
2023-06-11T23:05:43.424Z,23.40
2023-06-11T23:09:16.432Z,23.60
2023-06-11T23:12:12.807Z,23.30
2023-06-11T23:15:31.122Z,23.20
2023-06-11T23:21:43.854Z,23.10
2023-06-11T23:28:43.389Z,23.00
2023-06-11T23:32:13.780Z,22.90
2023-06-11T23:35:11.073Z,22.80
2023-06-11T23:39:10.600Z,22.80
2023-06-11T23:41:42.982Z,22.70
2023-06-11T23:44:11.870Z,22.50
2023-06-11T23:46:49.401Z,22.40
2023-06-11T23:49:18.854Z,22.40
2023-06-11T23:54:39.521Z,22.30
2023-06-11T23:57:12.176Z,22.20
